Time;durP1;ratioP1;P1;durP2;ratioP2;P2;SDS_P1;SDS_P2;PMS_P1;PMS_P2;Temp;Humidity;BMP_temperature;BMP_pressure;BME280_temperature;BME280_humidity;BME280_pressure;Samples;Min_cycle;Max_cycle;Signal;HPM_P1;HPM_P2
2022/12/12 00:01:41;;;;;;;2.30;1.20;;;2.00;32.80;;;;;;5023468;28;20229;-68
2022/12/12 00:04:18;;;;;;;2.30;1.30;;;2.00;33.30;;;;;;5026571;28;20447;-67
2022/12/12 00:06:44;;;;;;;3.67;1.30;;;2.00;33.80;;;;;;5031597;28;20270;-67
2022/12/12 00:09:12;;;;;;;2.20;1.03;;;2.10;32.80;;;;;;5016195;28;20671;-67
2022/12/12 00:11:42;;;;;;;2.20;1.20;;;2.20;32.90;;;;;;5014525;28;20423;-70
2022/12/12 00:14:10;;;;;;;2.30;1.10;;;2.40;32.10;;;;;;5028464;28;20660;-68
2022/12/12 00:16:39;;;;;;;2.30;1.00;;;2.20;32.30;;;;;;5031738;28;20238;-67
2022/12/12 00:19:04;;;;;;;3.05;2.10;;;1.90;32.90;;;;;;5033279;28;20212;-69
2022/12/12 00:21:33;;;;;;;2.30;1.10;;;1.90;33.50;;;;;;5026128;28;20747;-67
2022/12/12 00:24:02;;;;;;;2.30;1.10;;;1.90;33.90;;;;;;5033939;28;20443;-68
2022/12/12 00:26:32;;;;;;;2.40;1.25;;;2.00;33.40;;;;;;5023664;28;20201;-68
2022/12/12 00:29:04;;;;;;;2.40;1.20;;;2.20;33.40;;;;;;5018203;28;20196;-67
2022/12/12 00:31:34;;;;;;;2.50;1.30;;;1.80;33.40;;;;;;5012909;28;20188;-67
2022/12/12 00:34:02;;;;;;;2.75;1.40;;;1.90;34.10;;;;;;5005333;28;20578;-67
2022/12/12 00:36:29;;;;;;;2.17;1.10;;;2.20;32.60;;;;;;5029760;28;20184;-68
2022/12/12 00:39:01;;;;;;;2.20;1.10;;;2.20;32.20;;;;;;5030473;28;20551;-68
2022/12/12 00:41:34;;;;;;;2.20;1.00;;;2.10;32.70;;;;;;5028218;28;20315;-71
2022/12/12 00:44:06;;;;;;;5.15;2.00;;;2.30;31.80;;;;;;5023898;28;20573;-67
2022/12/12 00:46:31;;;;;;;2.40;1.30;;;2.10;32.70;;;;;;5028532;28;20250;-68
2022/12/12 00:49:00;;;;;;;2.20;1.10;;;1.90;33.30;;;;;;5028208;28;20200;-69
2022/12/12 00:51:30;;;;;;;2.30;1.10;;;2.10;32.70;;;;;;5009538;28;20941;-67
2022/12/12 00:53:57;;;;;;;2.40;1.17;;;2.00;32.70;;;;;;5022380;28;20203;-67
2022/12/12 00:56:30;;;;;;;2.72;1.52;;;1.80;33.50;;;;;;5030018;28;20196;-67
2022/12/12 00:58:57;;;;;;;2.92;1.48;;;1.70;34.80;;;;;;5029795;28;20681;-67
2022/12/12 01:01:29;;;;;;;3.03;1.52;;;1.60;33.80;;;;;;5022997;28;20179;-67
2022/12/12 01:03:57;;;;;;;2.83;1.50;;;1.50;34.60;;;;;;5031322;28;20187;-67
2022/12/12 01:06:29;;;;;;;2.55;1.20;;;1.60;34.30;;;;;;5024228;28;20575;-68
2022/12/12 01:08:58;;;;;;;2.50;1.00;;;1.70;33.00;;;;;;5031080;28;20208;-67
2022/12/12 01:11:29;;;;;;;4.40;2.72;;;1.60;33.70;;;;;;5033954;28;20552;-67
2022/12/12 01:13:55;;;;;;;2.60;1.10;;;1.60;33.70;;;;;;5033880;28;20585;-67
2022/12/12 01:16:22;;;;;;;7.07;2.88;;;1.80;32.50;;;;;;5024954;28;20180;-68
2022/12/12 01:18:49;;;;;;;2.60;1.10;;;1.80;32.30;;;;;;5032871;28;20278;-68
2022/12/12 01:21:44;;;;;;;2.70;1.20;;;1.70;32.30;;;;;;5028304;28;20178;-67
2022/12/12 01:24:10;;;;;;;2.70;1.10;;;1.70;32.20;;;;;;5020123;28;20181;-69
2022/12/12 01:26:36;;;;;;;2.70;1.10;;;1.70;31.90;;;;;;5026227;28;20204;-69
2022/12/12 01:29:03;;;;;;;2.80;1.20;;;1.50;33.50;;;;;;5023985;28;20282;-67
2022/12/12 01:31:29;;;;;;;2.80;1.10;;;1.40;33.20;;;;;;5024354;28;20272;-69
2022/12/12 01:33:55;;;;;;;2.80;1.10;;;1.40;33.30;;;;;;5023523;28;20659;-68
2022/12/12 01:36:22;;;;;;;2.80;1.20;;;1.40;33.30;;;;;;5022400;28;20215;-69
2022/12/12 01:38:51;;;;;;;2.95;1.35;;;1.30;33.40;;;;;;5027033;28;20196;-67
2022/12/12 01:41:18;;;;;;;4.28;1.77;;;1.30;33.70;;;;;;5027122;28;20196;-68
2022/12/12 01:43:50;;;;;;;2.80;1.20;;;1.40;33.20;;;;;;5021098;28;20185;-67
2022/12/12 01:46:28;;;;;;;2.90;1.30;;;1.40;33.30;;;;;;5024046;28;20571;-67
2022/12/12 01:49:04;;;;;;;2.70;1.13;;;1.20;34.20;;;;;;5021100;28;20247;-69
2022/12/12 01:51:31;;;;;;;2.70;1.10;;;1.10;34.00;;;;;;5024864;28;20172;-67
2022/12/12 01:54:03;;;;;;;3.00;1.42;;;1.00;33.60;;;;;;5005753;28;20271;-67
2022/12/12 01:56:30;;;;;;;2.80;1.20;;;0.90;34.70;;;;;;5025867;28;20185;-69
2022/12/12 01:58:59;;;;;;;3.30;1.70;;;0.80;35.10;;;;;;5022981;28;20248;-67
2022/12/12 02:01:28;;;;;;;3.65;2.08;;;0.90;34.80;;;;;;5030553;28;20193;-67
2022/12/12 02:03:54;;;;;;;2.80;1.10;;;0.90;35.10;;;;;;5029844;28;20459;-68
2022/12/12 02:06:26;;;;;;;2.70;1.10;;;0.70;35.20;;;;;;5027191;28;20228;-68
2022/12/12 02:08:55;;;;;;;3.40;1.55;;;0.80;34.70;;;;;;5030789;28;20204;-67
2022/12/12 02:11:26;;;;;;;2.80;1.10;;;0.70;34.50;;;;;;5027554;28;20230;-67
2022/12/12 02:13:53;;;;;;;3.30;1.60;;;0.70;35.40;;;;;;5033578;28;20179;-67
2022/12/12 02:16:35;;;;;;;3.20;1.35;;;0.60;35.40;;;;;;5024805;28;20188;-67
2022/12/12 02:19:35;;;;;;;3.00;1.20;;;0.30;35.20;;;;;;5077323;22;20231;-71
2022/12/12 02:22:20;;;;;;;4.28;1.50;;;0.10;35.70;;;;;;5032798;28;20195;-71
2022/12/12 02:25:30;;;;;;;4.45;1.63;;;0.20;35.80;;;;;;5034043;28;20203;-71
2022/12/12 02:28:15;;;;;;;4.47;2.53;;;0.40;35.10;;;;;;5033097;28;20216;-72
2022/12/12 02:30:58;;;;;;;3.83;1.73;;;0.40;34.90;;;;;;5033459;28;20546;-71
2022/12/12 02:33:52;;;;;;;3.10;1.30;;;0.30;35.80;;;;;;5028788;28;20179;-73
2022/12/12 02:36:26;;;;;;;3.40;1.55;;;0.40;35.20;;;;;;5029910;28;20187;-71
2022/12/12 02:38:55;;;;;;;3.40;1.50;;;0.30;35.40;;;;;;5032507;28;20293;-71
2022/12/12 02:41:43;;;;;;;3.40;1.48;;;0.10;35.40;;;;;;5033315;28;20211;-71
2022/12/12 02:44:27;;;;;;;3.30;1.45;;;0.30;35.10;;;;;;5031734;28;20216;-72
2022/12/12 02:47:05;;;;;;;5.00;2.25;;;0.50;34.40;;;;;;5033098;28;20246;-71
2022/12/12 02:49:44;;;;;;;3.10;1.23;;;0.50;33.70;;;;;;5029014;28;20651;-72
2022/12/12 02:52:10;;;;;;;3.10;1.20;;;0.40;34.20;;;;;;5030528;28;20239;-71
2022/12/12 02:54:37;;;;;;;3.30;1.40;;;0.30;34.80;;;;;;5032371;28;20181;-71
2022/12/12 02:57:03;;;;;;;3.10;1.20;;;0.20;35.00;;;;;;5032550;28;20577;-72
2022/12/12 02:59:40;;;;;;;3.08;1.15;;;0.20;35.80;;;;;;5032041;28;20200;-72
2022/12/12 03:02:14;;;;;;;3.28;1.35;;;0.30;34.50;;;;;;5032404;28;20192;-71
2022/12/12 03:08:20;;;;;;;3.60;1.58;;;0.50;33.00;;;;;;5032400;28;20578;-71
2022/12/12 03:11:23;;;;;;;4.00;1.95;;;0.30;34.00;;;;;;4992172;28;20185;-71
2022/12/12 03:13:58;;;;;;;3.40;1.40;;;0.30;33.90;;;;;;4965298;28;20236;-71
2022/12/12 03:16:38;;;;;;;3.30;1.38;;;0.20;34.10;;;;;;4991664;28;20193;-71
2022/12/12 03:19:03;;;;;;;3.45;1.45;;;0.10;34.50;;;;;;4996210;28;20247;-71
2022/12/12 03:21:58;;;;;;;8.97;2.80;;;0.10;34.20;;;;;;4991944;28;20630;-72
2022/12/12 03:24:37;;;;;;;3.50;1.42;;;0.00;34.80;;;;;;4992280;28;20182;-71
2022/12/12 03:27:10;;;;;;;3.40;1.30;;;-0.10;35.20;;;;;;4986993;28;20251;-72
2022/12/12 03:29:49;;;;;;;3.25;1.10;;;-0.10;34.80;;;;;;4989414;28;20194;-71
2022/12/12 03:32:20;;;;;;;3.80;1.55;;;-0.10;34.50;;;;;;4989468;28;20718;-71
2022/12/12 03:34:55;;;;;;;3.85;1.63;;;0.00;34.80;;;;;;4988021;28;20408;-71
2022/12/12 03:37:31;;;;;;;3.95;1.73;;;0.30;33.20;;;;;;4985381;28;20692;-72
2022/12/12 03:40:04;;;;;;;3.30;1.10;;;0.40;32.60;;;;;;5003002;28;20192;-71
2022/12/12 03:42:40;;;;;;;3.40;1.30;;;0.30;32.90;;;;;;5024018;28;20192;-72
2022/12/12 03:45:17;;;;;;;3.70;1.65;;;0.20;33.70;;;;;;5028379;28;20226;-71
2022/12/12 03:47:50;;;;;;;3.50;1.40;;;0.30;33.30;;;;;;5025864;28;20588;-71
2022/12/12 03:50:24;;;;;;;3.40;1.40;;;0.20;33.60;;;;;;5025372;28;20172;-71
2022/12/12 03:53:17;;;;;;;3.60;1.50;;;-0.20;34.40;;;;;;5028584;28;20181;-71
2022/12/12 03:56:17;;;;;;;3.42;1.40;;;-0.20;34.80;;;;;;5025025;28;20319;-71
2022/12/12 03:58:52;;;;;;;7.10;3.60;;;-0.20;34.60;;;;;;5024626;28;20205;-71
2022/12/12 04:01:22;;;;;;;7.63;2.00;;;-0.20;34.70;;;;;;5027024;28;20276;-72
2022/12/12 04:04:04;;;;;;;3.40;1.35;;;0.00;33.50;;;;;;5028598;28;20271;-71
2022/12/12 04:06:41;;;;;;;3.60;1.40;;;0.10;33.10;;;;;;5025404;28;20203;-71
2022/12/12 04:14:50;;;;;;;3.40;1.25;;;-0.30;34.30;;;;;;5025859;28;20175;-71
2022/12/12 04:17:24;;;;;;;3.60;1.40;;;-0.10;33.70;;;;;;5028172;28;20189;-71
2022/12/12 04:29:12;;;;;;;3.40;1.20;;;0.10;33.40;;;;;;4990249;28;20237;-71
2022/12/12 04:31:45;;;;;;;3.47;1.20;;;0.20;33.10;;;;;;5030304;28;20197;-71
2022/12/12 04:34:34;;;;;;;3.50;1.40;;;0.30;32.40;;;;;;5029803;28;20172;-72
2022/12/12 04:37:04;;;;;;;3.60;1.40;;;0.20;32.50;;;;;;5027354;28;20180;-71
2022/12/12 04:39:31;;;;;;;3.30;1.10;;;-0.10;33.00;;;;;;5030490;28;20187;-71
2022/12/12 04:41:59;;;;;;;3.75;1.65;;;-0.10;33.40;;;;;;5030569;28;20264;-72
2022/12/12 04:44:28;;;;;;;5.15;2.67;;;-0.30;33.40;;;;;;5031111;28;20187;-71
2022/12/12 04:46:56;;;;;;;3.50;1.20;;;-0.40;33.80;;;;;;5023458;28;20212;-72
2022/12/12 04:49:27;;;;;;;3.40;1.10;;;-0.40;34.30;;;;;;5029834;28;20555;-71
2022/12/12 04:51:59;;;;;;;3.53;1.40;;;-0.40;34.30;;;;;;5030814;28;20207;-71
2022/12/12 04:54:28;;;;;;;3.40;1.20;;;-0.20;33.00;;;;;;5030732;28;20189;-71
2022/12/12 04:56:58;;;;;;;3.50;1.30;;;-0.10;33.00;;;;;;5029294;28;20241;-71
2022/12/12 04:59:24;;;;;;;3.30;1.10;;;-0.20;32.80;;;;;;5030671;28;20200;-72
2022/12/12 05:02:19;;;;;;;4.30;1.80;;;-0.30;34.00;;;;;;5030843;28;20174;-72
2022/12/12 05:04:58;;;;;;;3.50;1.25;;;-0.40;33.60;;;;;;5024124;28;20196;-72
2022/12/12 05:07:42;;;;;;;3.50;1.20;;;-0.30;33.20;;;;;;5028961;28;20650;-72
2022/12/12 05:10:14;;;;;;;3.65;1.30;;;-0.40;33.40;;;;;;5030536;28;20180;-72
2022/12/12 05:12:46;;;;;;;3.70;1.33;;;-0.40;33.20;;;;;;5030875;28;20254;-72
2022/12/12 05:15:13;;;;;;;3.63;1.30;;;-0.20;33.00;;;;;;5030505;28;20207;-72
2022/12/12 05:17:45;;;;;;;4.55;2.05;;;-0.20;32.30;;;;;;5028650;28;20204;-72
2022/12/12 05:20:11;;;;;;;3.50;1.20;;;-0.20;32.30;;;;;;5022669;28;20277;-72
2022/12/12 05:22:37;;;;;;;3.90;1.50;;;-0.10;31.90;;;;;;5030615;28;20695;-72
2022/12/12 05:25:03;;;;;;;5.53;2.13;;;-0.10;32.50;;;;;;5023304;28;20272;-72
2022/12/12 05:27:28;;;;;;;3.80;1.43;;;-0.20;32.50;;;;;;5014934;28;20284;-72
2022/12/12 05:29:54;;;;;;;5.10;1.97;;;-0.30;32.90;;;;;;5023172;28;20442;-72
2022/12/12 05:32:20;;;;;;;4.17;1.43;;;-0.40;33.70;;;;;;5030077;28;20695;-72
2022/12/12 05:34:45;;;;;;;3.67;1.47;;;-0.30;33.20;;;;;;5030498;28;20185;-72
2022/12/12 05:37:11;;;;;;;3.60;1.63;;;-0.50;33.30;;;;;;5030883;28;20184;-72
2022/12/12 05:39:36;;;;;;;3.10;1.20;;;-0.60;34.40;;;;;;5028129;28;20263;-72
2022/12/12 05:42:02;;;;;;;3.27;1.50;;;-0.50;34.60;;;;;;5019070;28;20181;-72
2022/12/12 05:44:28;;;;;;;3.00;1.20;;;-0.50;34.00;;;;;;5027817;28;20192;-72
2022/12/12 05:46:53;;;;;;;3.00;1.20;;;-0.40;34.00;;;;;;5030402;28;20209;-73
2022/12/12 05:49:19;;;;;;;2.90;1.20;;;-0.30;34.30;;;;;;5028348;28;20726;-72
2022/12/12 05:51:44;;;;;;;2.90;1.20;;;-0.20;34.30;;;;;;5031345;28;20181;-72
2022/12/12 05:54:10;;;;;;;2.90;1.20;;;-0.10;34.10;;;;;;5034164;28;20235;-72
2022/12/12 05:56:36;;;;;;;2.90;1.40;;;0.00;34.50;;;;;;5033836;28;20271;-72
2022/12/12 05:59:01;;;;;;;2.80;1.30;;;0.10;34.50;;;;;;5034090;28;20215;-72
2022/12/12 06:01:27;;;;;;;2.70;1.20;;;0.00;34.10;;;;;;5011687;28;20277;-71
2022/12/12 06:03:52;;;;;;;4.00;2.37;;;0.00;33.60;;;;;;5032045;28;20196;-72
2022/12/12 06:06:18;;;;;;;3.73;2.17;;;0.10;33.50;;;;;;5029499;28;20204;-73
2022/12/12 06:08:44;;;;;;;2.80;1.20;;;0.20;33.20;;;;;;5033799;28;20239;-72
2022/12/12 06:11:09;;;;;;;3.27;1.50;;;0.20;33.70;;;;;;5033758;28;20180;-72
2022/12/12 06:13:36;;;;;;;2.70;1.10;;;0.30;33.70;;;;;;5032867;28;20212;-73
2022/12/12 06:16:11;;;;;;;2.80;1.23;;;0.30;33.60;;;;;;5032852;28;20188;-73
2022/12/12 06:18:37;;;;;;;3.00;1.30;;;0.30;33.70;;;;;;5033181;28;20215;-73
2022/12/12 06:21:06;;;;;;;2.70;1.20;;;0.30;33.50;;;;;;5031763;28;20238;-72
2022/12/12 06:23:36;;;;;;;3.00;1.50;;;0.30;33.60;;;;;;5032406;28;20454;-72
2022/12/12 06:26:02;;;;;;;2.80;1.33;;;0.40;33.20;;;;;;5027591;28;20189;-73
2022/12/12 06:28:27;;;;;;;3.10;1.50;;;0.40;32.20;;;;;;5010473;28;20231;-73
2022/12/12 06:30:53;;;;;;;3.30;1.83;;;0.60;31.60;;;;;;5033030;28;20211;-73
2022/12/12 06:33:18;;;;;;;3.90;1.70;;;0.90;30.00;;;;;;5033274;28;20188;-73
2022/12/12 06:35:44;;;;;;;2.80;1.30;;;0.80;30.90;;;;;;5032326;28;20203;-72
2022/12/12 06:38:10;;;;;;;11.60;3.60;;;1.00;29.90;;;;;;5033323;28;20235;-73
2022/12/12 06:40:39;;;;;;;2.70;1.20;;;0.80;30.00;;;;;;5033889;28;20185;-73
2022/12/12 06:43:05;;;;;;;3.28;1.58;;;0.70;31.80;;;;;;5026614;28;20181;-71
2022/12/12 06:45:31;;;;;;;2.70;1.20;;;0.60;32.40;;;;;;5025018;28;20694;-72
2022/12/12 06:47:56;;;;;;;3.00;1.50;;;0.50;31.20;;;;;;5030560;28;20216;-73
2022/12/12 06:50:22;;;;;;;3.30;1.70;;;0.60;30.80;;;;;;5032830;28;20191;-73
2022/12/12 06:52:47;;;;;;;2.80;1.30;;;0.70;30.40;;;;;;5032584;28;20192;-74
2022/12/12 06:55:13;;;;;;;2.80;1.23;;;0.60;31.20;;;;;;5033609;28;20647;-74
2022/12/12 06:57:38;;;;;;;2.60;1.10;;;0.50;31.60;;;;;;5033570;28;20228;-72
2022/12/12 07:00:04;;;;;;;2.70;1.17;;;0.50;31.90;;;;;;5031285;28;20188;-73
2022/12/12 07:02:30;;;;;;;2.78;1.30;;;0.60;30.30;;;;;;5030407;28;20698;-73
2022/12/12 07:04:57;;;;;;;2.70;1.20;;;0.50;30.70;;;;;;5036057;28;20216;-72
2022/12/12 07:07:23;;;;;;;2.95;1.30;;;0.40;31.80;;;;;;5027741;28;20259;-72
2022/12/12 07:09:48;;;;;;;2.80;1.30;;;0.40;32.00;;;;;;5030228;28;20724;-72
2022/12/12 07:12:14;;;;;;;4.10;1.70;;;0.30;32.20;;;;;;5030436;28;20547;-72
2022/12/12 07:14:39;;;;;;;3.57;1.77;;;0.50;31.90;;;;;;5025732;28;20176;-72
2022/12/12 07:17:05;;;;;;;3.17;1.63;;;0.50;31.80;;;;;;5032788;28;20248;-72
2022/12/12 07:19:31;;;;;;;2.80;1.30;;;0.50;32.00;;;;;;5034259;28;20181;-72
2022/12/12 07:21:57;;;;;;;3.00;1.70;;;0.50;32.20;;;;;;5031304;28;20427;-72
2022/12/12 07:24:22;;;;;;;2.70;1.20;;;0.40;32.00;;;;;;5032440;28;20176;-72
2022/12/12 07:26:48;;;;;;;3.73;1.97;;;0.40;31.90;;;;;;5032182;28;20205;-72
2022/12/12 07:29:14;;;;;;;3.87;2.27;;;0.70;30.20;;;;;;5029521;28;20703;-72
2022/12/12 07:31:40;;;;;;;3.35;1.65;;;0.70;30.90;;;;;;5030603;28;20618;-72
2022/12/12 07:34:05;;;;;;;2.80;1.40;;;0.60;32.00;;;;;;5025433;28;20213;-71
2022/12/12 07:36:31;;;;;;;3.67;1.67;;;0.70;30.80;;;;;;5013403;28;20184;-72
2022/12/12 07:38:57;;;;;;;4.50;2.70;;;0.80;30.80;;;;;;5032105;28;20204;-73
2022/12/12 07:41:22;;;;;;;3.63;2.03;;;0.80;30.20;;;;;;5028085;28;20189;-72
2022/12/12 07:43:49;;;;;;;3.43;1.77;;;0.90;30.80;;;;;;5012447;28;20181;-72
2022/12/12 07:46:19;;;;;;;3.08;1.55;;;1.10;30.20;;;;;;5023667;28;20211;-72
2022/12/12 07:48:45;;;;;;;2.80;1.30;;;1.10;30.00;;;;;;5031510;28;20196;-72
2022/12/12 07:51:11;;;;;;;2.83;1.30;;;1.10;30.40;;;;;;5032168;28;20724;-72
2022/12/12 07:53:37;;;;;;;3.10;1.52;;;1.20;30.70;;;;;;5030737;28;20462;-72
2022/12/12 07:56:11;;;;;;;2.77;1.20;;;1.10;30.60;;;;;;5023795;28;20216;-72
2022/12/12 07:58:37;;;;;;;3.67;1.83;;;1.00;31.50;;;;;;5031827;28;20227;-73
2022/12/12 08:01:19;;;;;;;2.80;1.20;;;1.10;31.80;;;;;;5013842;28;20223;-72
2022/12/12 08:03:46;;;;;;;2.90;1.30;;;0.70;33.10;;;;;;5030206;28;20457;-72
2022/12/12 08:06:12;;;;;;;2.80;1.30;;;0.20;34.60;;;;;;5027590;28;20229;-73
2022/12/12 08:08:38;;;;;;;3.75;1.85;;;0.40;34.60;;;;;;5030807;28;20280;-74
2022/12/12 08:11:09;;;;;;;3.30;1.70;;;0.50;34.30;;;;;;5024511;28;20260;-72
2022/12/12 08:13:37;;;;;;;2.80;1.30;;;0.40;34.50;;;;;;5029558;28;20181;-75
2022/12/12 08:16:04;;;;;;;2.80;1.38;;;0.10;35.50;;;;;;5031650;28;20181;-76
2022/12/12 08:18:30;;;;;;;3.00;1.45;;;0.20;35.50;;;;;;5030752;28;20214;-77
2022/12/12 08:20:56;;;;;;;2.80;1.30;;;0.20;35.40;;;;;;5031487;28;20199;-75
2022/12/12 08:23:22;;;;;;;2.83;1.30;;;0.20;35.90;;;;;;5013817;28;20591;-73
2022/12/12 08:25:47;;;;;;;2.90;1.30;;;0.30;35.80;;;;;;5028505;28;20625;-73
2022/12/12 08:28:13;;;;;;;2.70;1.10;;;0.60;35.00;;;;;;5025586;28;20464;-73
2022/12/12 08:30:39;;;;;;;2.87;1.23;;;0.80;34.40;;;;;;5031681;28;20175;-73
2022/12/12 08:33:04;;;;;;;2.80;1.20;;;0.20;35.70;;;;;;5027752;28;20680;-73
2022/12/12 08:35:31;;;;;;;6.60;3.70;;;0.00;36.80;;;;;;5030266;28;20177;-73
2022/12/12 08:37:57;;;;;;;2.97;1.38;;;0.00;36.70;;;;;;5029390;28;20211;-73
2022/12/12 08:40:23;;;;;;;2.70;1.10;;;-0.50;37.50;;;;;;5024442;28;20184;-73
2022/12/12 08:42:49;;;;;;;3.97;1.60;;;-0.80;39.30;;;;;;5029462;28;20406;-72
2022/12/12 08:45:15;;;;;;;3.30;1.60;;;-1.10;41.10;;;;;;5023105;28;20247;-73
2022/12/12 08:47:40;;;;;;;2.93;1.43;;;-0.70;40.30;;;;;;5029539;28;20220;-71
2022/12/12 08:50:06;;;;;;;2.90;1.30;;;0.10;38.10;;;;;;5024636;28;20193;-72
2022/12/12 08:52:32;;;;;;;2.80;1.17;;;0.00;36.60;;;;;;5026408;28;20181;-72
2022/12/12 08:54:57;;;;;;;3.00;1.30;;;-0.40;37.30;;;;;;5022911;28;20442;-73
2022/12/12 08:57:23;;;;;;;2.90;1.30;;;-1.00;39.00;;;;;;5022716;28;20284;-72
2022/12/12 08:59:48;;;;;;;3.23;1.50;;;-0.70;38.70;;;;;;5025276;28;20754;-72
2022/12/12 09:02:14;;;;;;;4.00;2.03;;;-0.50;37.00;;;;;;5026760;28;20192;-72
2022/12/12 09:04:40;;;;;;;2.90;1.30;;;-0.10;36.80;;;;;;5029871;28;20255;-74
2022/12/12 09:07:05;;;;;;;2.77;1.13;;;0.20;36.00;;;;;;5029705;28;20359;-73
2022/12/12 09:09:31;;;;;;;2.90;1.30;;;0.10;36.00;;;;;;5029427;28;20216;-72
2022/12/12 09:11:57;;;;;;;4.28;1.83;;;0.00;35.80;;;;;;5030401;28;20177;-72
2022/12/12 09:14:23;;;;;;;2.80;1.20;;;0.10;36.10;;;;;;5029271;28;20189;-72
2022/12/12 09:16:48;;;;;;;4.80;2.90;;;-0.50;37.20;;;;;;5024181;28;20440;-73
2022/12/12 09:19:15;;;;;;;2.70;1.10;;;-0.30;38.10;;;;;;5027325;28;20218;-73
2022/12/12 09:21:41;;;;;;;3.10;1.40;;;-0.40;37.00;;;;;;5029713;28;20185;-74
2022/12/12 09:24:07;;;;;;;3.40;1.90;;;0.30;36.10;;;;;;5028182;28;20193;-74
2022/12/12 09:26:33;;;;;;;2.70;1.10;;;0.50;35.10;;;;;;5007439;28;20212;-74
2022/12/12 09:28:58;;;;;;;3.13;1.53;;;1.20;33.20;;;;;;5031920;28;21004;-74
2022/12/12 09:31:24;;;;;;;3.57;1.87;;;0.90;32.60;;;;;;5031738;28;20231;-75
2022/12/12 09:33:50;;;;;;;4.73;2.43;;;1.20;32.30;;;;;;5029562;28;20187;-73
2022/12/12 09:36:15;;;;;;;2.90;1.40;;;1.30;31.90;;;;;;5032370;28;20184;-75
2022/12/12 09:38:41;;;;;;;3.97;1.47;;;1.30;31.50;;;;;;5026106;28;20283;-75
2022/12/12 09:41:12;;;;;;;2.90;1.30;;;0.50;34.80;;;;;;5028518;28;20721;-76
2022/12/12 09:43:45;;;;;;;2.80;1.20;;;0.30;34.50;;;;;;5031613;28;20655;-73
2022/12/12 09:46:59;;;;;;;8.98;2.75;;;0.10;35.20;;;;;;5032833;28;20268;-72
2022/12/12 09:49:46;;;;;;;3.25;1.50;;;0.10;35.10;;;;;;5022945;28;20205;-72
2022/12/12 09:52:17;;;;;;;2.80;1.30;;;0.90;33.60;;;;;;5034718;28;20180;-73
2022/12/12 09:54:43;;;;;;;3.10;1.50;;;1.70;31.40;;;;;;5026599;28;20316;-71
2022/12/12 09:57:23;;;;;;;3.00;1.40;;;1.80;31.30;;;;;;5024077;28;20193;-73
2022/12/12 10:00:11;;;;;;;2.88;1.40;;;2.00;30.90;;;;;;5023125;28;20326;-71
2022/12/12 10:03:03;;;;;;;2.90;1.50;;;1.70;31.10;;;;;;5027629;28;20185;-71
2022/12/12 10:05:41;;;;;;;2.83;1.33;;;1.20;32.80;;;;;;5027632;28;20556;-72
2022/12/12 10:08:36;;;;;;;2.80;1.20;;;0.80;33.70;;;;;;5027527;28;20216;-71
2022/12/12 10:11:48;;;;;;;3.40;1.75;;;0.90;34.10;;;;;;5027812;28;20210;-71
2022/12/12 10:13:57;;;;;;;3.28;2.05;;;0.30;34.50;;;;;;5028367;28;20192;-72
2022/12/12 10:16:24;;;;;;;3.28;1.67;;;0.10;35.40;;;;;;5028659;28;20701;-71
2022/12/12 10:18:51;;;;;;;2.97;1.40;;;0.50;35.30;;;;;;5030610;28;20219;-71
2022/12/12 10:21:23;;;;;;;2.88;1.45;;;0.90;34.50;;;;;;5029987;28;20264;-70
2022/12/12 10:23:57;;;;;;;2.60;1.27;;;0.70;34.10;;;;;;5029736;28;20279;-71
2022/12/12 10:26:26;;;;;;;2.70;1.40;;;1.10;34.40;;;;;;5010463;28;20674;-72
2022/12/12 10:28:56;;;;;;;2.60;1.27;;;1.20;33.40;;;;;;5027295;28;20566;-71
2022/12/12 10:31:32;;;;;;;3.28;1.85;;;1.00;33.80;;;;;;5028459;28;20193;-71
2022/12/12 10:34:51;;;;;;;20.38;2.67;;;1.00;34.60;;;;;;5028941;28;20176;-72
2022/12/12 10:37:27;;;;;;;4.22;2.20;;;1.40;33.70;;;;;;4969120;28;20741;-72
2022/12/12 10:40:17;;;;;;;2.85;1.40;;;1.40;33.20;;;;;;5023250;28;20249;-72
2022/12/12 10:42:43;;;;;;;3.10;1.58;;;1.40;33.30;;;;;;5026257;28;20263;-72
2022/12/12 10:45:29;;;;;;;2.40;1.20;;;1.70;32.50;;;;;;5029860;28;20243;-71
2022/12/12 10:47:55;;;;;;;2.40;1.13;;;2.30;32.70;;;;;;5027581;28;20632;-72
2022/12/12 10:50:33;;;;;;;2.50;1.30;;;2.20;31.80;;;;;;5030113;28;20184;-72
2022/12/12 10:53:01;;;;;;;2.40;1.35;;;2.70;30.80;;;;;;5025573;28;20184;-72
2022/12/12 10:55:50;;;;;;;2.65;1.63;;;2.70;30.90;;;;;;5030857;28;20172;-73
2022/12/12 10:58:16;;;;;;;2.30;1.40;;;2.00;32.80;;;;;;5029980;28;20212;-71
2022/12/12 11:00:44;;;;;;;2.30;1.30;;;2.10;32.50;;;;;;5031541;28;20552;-73
2022/12/12 11:03:34;;;;;;;4.72;2.75;;;1.20;34.00;;;;;;5026694;28;20221;-71
2022/12/12 11:06:05;;;;;;;3.20;2.40;;;1.90;33.30;;;;;;5029773;28;20191;-72
2022/12/12 11:08:34;;;;;;;2.30;1.25;;;2.50;32.00;;;;;;5030690;28;20219;-72
2022/12/12 11:11:09;;;;;;;2.30;1.35;;;3.10;31.40;;;;;;5025314;28;20744;-72
2022/12/12 11:13:45;;;;;;;3.45;2.03;;;3.70;29.60;;;;;;5029612;28;20200;-71
2022/12/12 11:16:22;;;;;;;2.63;1.60;;;4.10;29.10;;;;;;5030608;28;20210;-71
2022/12/12 11:19:20;;;;;;;2.10;1.20;;;3.10;29.90;;;;;;5027109;28;20204;-72
2022/12/12 11:21:47;;;;;;;2.53;1.70;;;2.10;32.80;;;;;;5026749;28;20219;-73
2022/12/12 11:24:18;;;;;;;2.10;1.20;;;1.90;34.10;;;;;;5029906;28;20281;-72
2022/12/12 11:27:05;;;;;;;2.10;1.20;;;1.30;35.40;;;;;;5028189;28;20204;-71
2022/12/12 11:29:39;;;;;;;2.00;1.10;;;1.50;35.00;;;;;;5026504;28;20173;-71
2022/12/12 11:32:18;;;;;;;2.00;1.10;;;1.40;35.30;;;;;;5025669;28;20194;-70
2022/12/12 11:34:49;;;;;;;2.35;1.40;;;1.30;35.90;;;;;;5031973;28;20184;-73
2022/12/12 11:37:18;;;;;;;2.20;1.35;;;1.40;35.30;;;;;;5029202;28;20192;-73
2022/12/12 11:39:47;;;;;;;2.00;1.13;;;1.10;36.50;;;;;;5038312;28;20180;-75
2022/12/12 11:42:13;;;;;;;2.50;1.58;;;1.40;35.30;;;;;;5044115;28;20180;-72
2022/12/12 11:44:39;;;;;;;2.53;1.93;;;2.00;34.10;;;;;;5019608;28;20195;-73
2022/12/12 11:47:17;;;;;;;2.33;1.42;;;3.10;32.40;;;;;;5033184;28;20200;-72
2022/12/12 11:49:57;;;;;;;1.80;1.10;;;3.80;30.00;;;;;;5025876;28;20731;-73
2022/12/12 11:52:30;;;;;;;1.83;1.27;;;4.60;28.70;;;;;;5026585;28;20189;-73
2022/12/12 11:54:57;;;;;;;2.90;2.00;;;5.00;27.80;;;;;;5027746;28;20259;-72
2022/12/12 11:57:46;;;;;;;2.20;1.70;;;5.30;27.00;;;;;;5029848;28;20333;-71
2022/12/12 12:00:14;;;;;;;4.57;1.90;;;5.80;27.30;;;;;;5021229;28;20264;-74
2022/12/12 12:02:55;;;;;;;1.90;1.30;;;5.80;26.90;;;;;;5029123;28;20185;-73
2022/12/12 12:05:31;;;;;;;3.05;1.92;;;6.10;26.70;;;;;;5024427;28;20180;-73
2022/12/12 12:08:20;;;;;;;2.05;1.42;;;6.60;25.60;;;;;;5024161;28;20205;-73
2022/12/12 12:11:03;;;;;;;2.00;1.38;;;6.00;26.10;;;;;;5030957;28;20211;-70
2022/12/12 12:13:47;;;;;;;2.33;1.48;;;6.80;26.40;;;;;;5023679;28;20222;-70
2022/12/12 12:16:24;;;;;;;3.50;1.52;;;5.80;27.10;;;;;;5031549;28;20624;-70
2022/12/12 12:19:10;;;;;;;2.50;1.70;;;6.00;27.00;;;;;;5029790;28;20204;-71
2022/12/12 12:21:38;;;;;;;2.42;1.52;;;6.40;25.80;;;;;;5025308;28;20255;-71
2022/12/12 12:24:32;;;;;;;2.38;1.30;;;5.90;26.70;;;;;;5029733;28;20271;-71
2022/12/12 12:27:22;;;;;;;2.10;1.50;;;5.30;28.40;;;;;;5020608;28;20671;-71
2022/12/12 12:30:08;;;;;;;2.00;1.38;;;5.20;28.10;;;;;;5008785;28;20655;-72
2022/12/12 12:32:40;;;;;;;2.45;1.55;;;4.40;29.00;;;;;;5024228;28;20216;-71
2022/12/12 12:35:23;;;;;;;2.35;1.63;;;4.80;29.20;;;;;;5030497;28;20180;-72
2022/12/12 12:38:19;;;;;;;2.05;1.40;;;4.30;29.30;;;;;;5024729;28;20200;-73
2022/12/12 12:40:53;;;;;;;1.95;1.40;;;4.30;29.90;;;;;;5025402;28;20183;-73
2022/12/12 12:43:43;;;;;;;5.43;2.15;;;4.50;29.60;;;;;;5030926;28;20183;-73
2022/12/12 12:46:27;;;;;;;1.80;1.30;;;4.70;28.80;;;;;;5030843;28;20184;-73
2022/12/12 12:48:57;;;;;;;2.05;1.58;;;4.90;29.00;;;;;;5022763;28;20215;-71
2022/12/12 12:51:48;;;;;;;1.90;1.30;;;5.50;28.10;;;;;;5030955;28;20525;-71
2022/12/12 12:54:23;;;;;;;1.90;1.40;;;5.60;27.60;;;;;;5030603;28;20271;-71
2022/12/12 12:56:59;;;;;;;1.98;1.35;;;5.90;27.10;;;;;;5027992;28;20188;-71
2022/12/12 12:59:32;;;;;;;1.80;1.20;;;5.70;27.10;;;;;;5015151;28;20577;-71
2022/12/12 13:02:03;;;;;;;3.28;2.22;;;5.20;28.10;;;;;;5033141;28;20258;-71
2022/12/12 13:04:35;;;;;;;3.03;1.83;;;4.80;28.90;;;;;;5035290;28;20191;-71
2022/12/12 13:07:14;;;;;;;1.90;1.30;;;4.40;30.00;;;;;;5032548;28;20281;-71
2022/12/12 13:09:59;;;;;;;1.90;1.20;;;4.20;29.90;;;;;;5028674;28;20211;-71
2022/12/12 13:12:39;;;;;;;1.98;1.30;;;4.00;29.90;;;;;;5034533;28;20216;-71
2022/12/12 13:15:34;;;;;;;4.55;2.40;;;3.70;31.00;;;;;;5034777;28;20187;-71
2022/12/12 13:18:09;;;;;;;4.60;1.95;;;4.10;30.40;;;;;;5029578;28;20228;-72
2022/12/12 13:20:50;;;;;;;2.90;2.03;;;4.20;30.60;;;;;;5034320;28;20678;-72
2022/12/12 13:23:51;;;;;;;2.63;1.65;;;4.00;30.00;;;;;;5034439;28;20623;-72
2022/12/12 13:26:53;;;;;;;2.03;1.35;;;4.10;30.20;;;;;;5011689;28;20203;-72
2022/12/12 13:29:48;;;;;;;2.05;1.42;;;4.70;29.30;;;;;;5033374;28;20295;-72
2022/12/12 13:32:33;;;;;;;2.65;1.75;;;5.60;28.20;;;;;;5034865;28;20172;-72
2022/12/12 13:35:05;;;;;;;2.42;1.77;;;6.30;26.60;;;;;;5035100;28;20177;-72
2022/12/12 13:37:42;;;;;;;4.15;2.70;;;5.80;26.80;;;;;;5028927;28;20830;-72
2022/12/12 13:40:24;;;;;;;3.47;2.03;;;5.50;27.40;;;;;;5014422;28;20350;-72
2022/12/12 13:42:53;;;;;;;2.10;1.50;;;5.40;28.20;;;;;;5031100;28;20220;-72